Time;durP1;ratioP1;P1;durP2;ratioP2;P2;SDS_P1;SDS_P2;PMS_P1;PMS_P2;Temp;Humidity;BMP_temperature;BMP_pressure;BME280_temperature;BME280_humidity;BME280_pressure;Samples;Min_cycle;Max_cycle;Signal;HPM_P1;HPM_P2
2023/01/20 00:04:33;;;;;;;0.03;0.03;;;0.60;99.90;;;;;;10395849;28;20396;-87
2023/01/20 00:09:34;;;;;;;0.10;0.10;;;0.60;99.90;;;;;;10373498;28;20151;-88
2023/01/20 00:14:34;;;;;;;0.10;0.10;;;0.50;99.90;;;;;;10384685;28;20029;-87
2023/01/20 00:19:35;;;;;;;0.67;0.67;;;0.50;99.90;;;;;;10383540;28;20022;-87
2023/01/20 00:24:35;;;;;;;0.00;0.00;;;0.40;99.90;;;;;;10401354;28;20034;-87
2023/01/20 00:29:36;;;;;;;0.00;0.00;;;0.40;99.90;;;;;;10384229;28;20400;-87
2023/01/20 00:34:37;;;;;;;0.00;0.00;;;0.30;99.90;;;;;;10387338;28;20037;-87
2023/01/20 00:39:37;;;;;;;0.93;0.93;;;0.30;99.90;;;;;;10385687;28;20041;-88
2023/01/20 00:44:38;;;;;;;0.50;0.50;;;0.40;99.90;;;;;;10384067;28;20045;-87
2023/01/20 00:49:38;;;;;;;0.40;0.40;;;0.40;99.90;;;;;;10395696;28;20050;-87
2023/01/20 00:54:39;;;;;;;0.00;0.00;;;0.30;99.90;;;;;;10383419;28;20838;-87
2023/01/20 00:59:39;;;;;;;0.37;0.37;;;0.20;99.90;;;;;;10401050;28;20037;-86
2023/01/20 01:04:40;;;;;;;3.10;2.90;;;0.10;99.90;;;;;;10392954;28;20041;-86
2023/01/20 01:09:40;;;;;;;2.03;1.90;;;0.10;99.90;;;;;;10387436;28;20064;-86
2023/01/20 01:14:41;;;;;;;0.20;0.20;;;0.00;99.90;;;;;;10398168;28;20032;-86
2023/01/20 01:19:56;;;;;;;0.00;0.00;;;-0.20;99.90;;;;;;10377336;28;20136;-87
2023/01/20 01:24:57;;;;;;;0.37;0.37;;;-0.30;99.90;;;;;;10382347;28;20518;-86
2023/01/20 01:29:57;;;;;;;0.17;0.17;;;-0.40;99.90;;;;;;10390644;28;20084;-87
2023/01/20 01:34:58;;;;;;;0.13;0.13;;;-0.70;99.90;;;;;;10386081;28;20064;-87
2023/01/20 01:39:59;;;;;;;0.33;0.33;;;-1.20;99.90;;;;;;10400101;28;20033;-87
2023/01/20 01:45:11;;;;;;;0.00;0.00;;;-1.70;99.90;;;;;;10404476;28;20518;-87
2023/01/20 01:50:36;;;;;;;0.10;0.10;;;-1.90;99.90;;;;;;10407070;28;20654;-86
2023/01/20 01:55:44;;;;;;;3.10;1.40;;;-2.00;99.90;;;;;;10403912;28;20034;-87
2023/01/20 02:00:46;;;;;;;2.00;1.77;;;-2.00;99.90;;;;;;10409074;28;20049;-87
2023/01/20 02:05:51;;;;;;;1.17;0.63;;;-2.00;99.90;;;;;;10390120;28;20636;-87
2023/01/20 02:10:51;;;;;;;0.95;0.95;;;-1.90;99.90;;;;;;10395185;28;20050;-86
2023/01/20 02:16:18;;;;;;;0.77;0.77;;;-1.80;99.90;;;;;;10396452;28;20025;-86
2023/01/20 02:21:48;;;;;;;1.20;1.20;;;-1.70;99.90;;;;;;10390641;28;20056;-86
2023/01/20 02:27:10;;;;;;;0.73;0.73;;;-1.70;99.90;;;;;;10388644;28;20412;-86
2023/01/20 02:32:24;;;;;;;0.00;0.00;;;-1.80;99.90;;;;;;10427200;28;20445;-87
2023/01/20 02:37:28;;;;;;;0.00;0.00;;;-1.80;99.90;;;;;;10413518;28;20095;-87
2023/01/20 02:42:32;;;;;;;1.73;1.10;;;-1.70;99.90;;;;;;10386922;28;20037;-86
2023/01/20 02:48:02;;;;;;;0.20;0.20;;;-1.70;99.90;;;;;;10410502;28;20052;-87
2023/01/20 02:53:05;;;;;;;2.00;1.93;;;-1.80;99.90;;;;;;10386956;28;20036;-86
2023/01/20 02:58:32;;;;;;;0.00;0.00;;;-1.80;99.90;;;;;;10388066;28;20604;-86
2023/01/20 03:03:36;;;;;;;1.83;1.73;;;-1.60;99.90;;;;;;10405556;28;20086;-87
2023/01/20 03:08:39;;;;;;;1.13;1.13;;;-1.50;99.90;;;;;;10404503;28;20463;-86
2023/01/20 03:13:43;;;;;;;0.00;0.00;;;-1.40;99.90;;;;;;10404165;28;20506;-87
2023/01/20 03:18:44;;;;;;;1.17;1.03;;;-1.30;99.90;;;;;;10384809;28;20556;-86
2023/01/20 03:23:49;;;;;;;0.50;0.50;;;-1.30;99.90;;;;;;10386270;28;20052;-86
2023/01/20 03:28:50;;;;;;;0.73;0.73;;;-1.20;99.90;;;;;;10388144;28;20041;-87
2023/01/20 03:33:54;;;;;;;0.00;0.00;;;-1.20;99.90;;;;;;10393195;28;20037;-88
2023/01/20 03:38:57;;;;;;;0.00;0.00;;;-1.20;99.90;;;;;;10402732;28;20651;-86
2023/01/20 03:44:18;;;;;;;0.73;0.73;;;-1.20;99.90;;;;;;10403681;28;20544;-88
2023/01/20 03:49:40;;;;;;;1.83;1.73;;;-1.10;99.90;;;;;;10383591;28;20045;-87
2023/01/20 03:55:03;;;;;;;0.93;0.83;;;-1.10;99.90;;;;;;10391463;28;20164;-87
2023/01/20 04:00:07;;;;;;;0.47;0.47;;;-1.10;99.90;;;;;;10403427;28;20034;-86
2023/01/20 04:05:09;;;;;;;0.00;0.00;;;-1.00;99.90;;;;;;10412023;28;20038;-86
2023/01/20 04:10:13;;;;;;;0.40;0.40;;;-1.00;99.90;;;;;;10401520;28;20565;-85
2023/01/20 04:15:15;;;;;;;0.00;0.00;;;-1.10;99.90;;;;;;10402870;28;20021;-87
2023/01/20 04:20:16;;;;;;;2.03;1.57;;;-1.10;99.90;;;;;;10410933;28;20041;-84
2023/01/20 04:25:25;;;;;;;0.00;0.00;;;-1.10;99.90;;;;;;10403788;28;20383;-84
2023/01/20 04:30:25;;;;;;;1.00;1.00;;;-1.10;99.90;;;;;;10406362;28;20457;-84
2023/01/20 04:35:26;;;;;;;1.60;1.40;;;-1.20;99.90;;;;;;10407179;28;20120;-84
2023/01/20 04:40:26;;;;;;;0.40;0.40;;;-1.40;99.90;;;;;;10401370;28;20033;-85
2023/01/20 04:45:27;;;;;;;0.00;0.00;;;-1.60;99.90;;;;;;10395376;28;20166;-84
2023/01/20 04:50:28;;;;;;;0.00;0.00;;;-1.80;99.90;;;;;;10407451;28;20037;-85
2023/01/20 04:55:28;;;;;;;0.47;0.47;;;-2.10;99.90;;;;;;10402846;28;20432;-87
2023/01/20 05:00:29;;;;;;;3.37;1.13;;;-2.20;99.90;;;;;;10406275;28;20474;-86
2023/01/20 05:05:29;;;;;;;1.60;1.50;;;-2.10;99.90;;;;;;10401172;28;20042;-86
2023/01/20 05:10:33;;;;;;;0.83;0.83;;;-2.10;99.90;;;;;;10380947;28;20061;-86
2023/01/20 05:15:34;;;;;;;0.00;0.00;;;-2.20;99.90;;;;;;10409472;28;20036;-85
2023/01/20 05:20:35;;;;;;;2.37;2.23;;;-2.20;99.90;;;;;;10413541;28;20388;-85
2023/01/20 05:25:35;;;;;;;1.50;1.43;;;-2.10;99.90;;;;;;10427842;28;20045;-86
2023/01/20 05:30:36;;;;;;;1.97;1.87;;;-2.20;99.90;;;;;;10413584;28;20476;-86
2023/01/20 05:35:37;;;;;;;0.00;0.00;;;-2.20;99.90;;;;;;10408711;28;20025;-85
2023/01/20 05:40:38;;;;;;;0.37;0.37;;;-2.20;99.90;;;;;;10412141;28;20119;-86
2023/01/20 05:45:38;;;;;;;3.30;1.20;;;-2.20;99.90;;;;;;10407191;28;20066;-86
2023/01/20 05:50:39;;;;;;;0.00;0.00;;;-2.20;99.90;;;;;;10407653;28;20017;-85
2023/01/20 05:55:39;;;;;;;0.20;0.20;;;-2.20;99.90;;;;;;10399554;28;20036;-85
2023/01/20 06:00:40;;;;;;;0.57;0.57;;;-2.10;99.90;;;;;;10413615;28;20030;-85
2023/01/20 06:05:40;;;;;;;0.50;0.50;;;-2.10;99.90;;;;;;10396206;28;20120;-85
2023/01/20 06:10:41;;;;;;;1.30;0.40;;;-2.00;99.90;;;;;;10386984;28;20488;-87
2023/01/20 06:15:41;;;;;;;1.20;1.20;;;-2.00;99.90;;;;;;10378180;28;20026;-87
2023/01/20 06:20:42;;;;;;;0.33;0.33;;;-2.10;99.90;;;;;;10379064;28;20041;-85
2023/01/20 06:25:43;;;;;;;1.83;1.70;;;-2.00;99.90;;;;;;10369174;28;20029;-86
2023/01/20 06:30:43;;;;;;;1.37;1.27;;;-1.90;99.90;;;;;;10381465;28;20209;-84
2023/01/20 06:35:44;;;;;;;0.27;0.27;;;-2.00;99.90;;;;;;10367820;28;20034;-85
2023/01/20 06:40:44;;;;;;;0.40;0.40;;;-2.10;99.90;;;;;;10369941;28;20094;-87
2023/01/20 06:45:45;;;;;;;1.40;1.40;;;-2.00;99.90;;;;;;10369034;28;20412;-85
2023/01/20 06:50:45;;;;;;;0.20;0.20;;;-2.10;99.90;;;;;;10367700;28;20029;-85
2023/01/20 06:55:55;;;;;;;0.60;0.60;;;-2.10;99.90;;;;;;10363994;28;20076;-85
2023/01/20 07:00:57;;;;;;;2.43;0.93;;;-2.10;99.90;;;;;;10370264;28;20301;-85
2023/01/20 07:06:00;;;;;;;1.20;1.20;;;-2.20;99.90;;;;;;10377947;28;20139;-86
2023/01/20 07:11:00;;;;;;;1.43;1.43;;;-2.10;99.90;;;;;;10367918;28;20053;-87
2023/01/20 07:16:01;;;;;;;2.40;2.03;;;-2.20;99.90;;;;;;10401874;28;20030;-86
2023/01/20 07:21:02;;;;;;;0.00;0.00;;;-2.20;99.90;;;;;;10405636;28;20067;-87
2023/01/20 07:26:08;;;;;;;8.30;2.47;;;-2.20;99.90;;;;;;10412283;28;20087;-87
2023/01/20 07:31:11;;;;;;;0.47;0.47;;;-2.20;99.90;;;;;;10413323;28;20428;-86
2023/01/20 07:36:14;;;;;;;0.60;0.60;;;-2.20;99.90;;;;;;10403228;28;20025;-86
2023/01/20 07:41:18;;;;;;;0.67;0.67;;;-2.00;99.90;;;;;;10402416;28;20033;-86
2023/01/20 07:46:19;;;;;;;0.97;0.97;;;-1.80;99.90;;;;;;10394776;28;20045;-85
2023/01/20 07:51:20;;;;;;;1.13;1.03;;;-1.60;99.90;;;;;;10385025;28;20396;-86
2023/01/20 07:56:26;;;;;;;3.40;3.20;;;-1.50;99.90;;;;;;10396747;28;20030;-87
2023/01/20 08:01:31;;;;;;;1.60;1.60;;;-1.50;99.90;;;;;;10389167;28;20107;-86
2023/01/20 08:06:32;;;;;;;0.10;0.10;;;-1.50;99.90;;;;;;10405866;28;20132;-87
2023/01/20 08:11:33;;;;;;;0.40;0.40;;;-1.40;99.90;;;;;;10422529;28;20056;-86
2023/01/20 08:16:33;;;;;;;0.83;0.83;;;-1.30;99.90;;;;;;10410381;28;20044;-84
2023/01/20 08:21:34;;;;;;;0.00;0.00;;;-1.10;99.90;;;;;;10397287;28;20504;-84
2023/01/20 08:26:34;;;;;;;1.23;1.13;;;-1.00;99.90;;;;;;10402559;28;20045;-84
2023/01/20 08:31:35;;;;;;;0.00;0.00;;;-0.80;99.90;;;;;;10408347;28;20511;-84
2023/01/20 08:36:39;;;;;;;0.07;0.07;;;-0.60;99.90;;;;;;10402715;28;20087;-84
2023/01/20 08:41:42;;;;;;;0.00;0.00;;;-0.40;99.90;;;;;;10383137;28;20037;-85
2023/01/20 08:46:43;;;;;;;6.33;1.80;;;-0.20;99.90;;;;;;10401573;28;20065;-84
2023/01/20 08:51:44;;;;;;;1.50;1.13;;;-0.10;99.90;;;;;;10406625;28;20532;-85
2023/01/20 08:56:48;;;;;;;3.67;3.37;;;0.10;99.90;;;;;;10393516;28;20045;-85
2023/01/20 09:01:48;;;;;;;7.63;2.83;;;0.20;99.90;;;;;;10410848;28;20569;-83
2023/01/20 09:06:51;;;;;;;4.17;3.90;;;0.30;99.90;;;;;;10410566;28;20044;-84
2023/01/20 09:11:52;;;;;;;0.00;0.00;;;0.30;99.90;;;;;;10404762;28;20132;-85
2023/01/20 09:16:52;;;;;;;0.43;0.43;;;0.40;99.90;;;;;;10405579;28;20055;-84
2023/01/20 09:21:53;;;;;;;0.93;0.93;;;0.30;99.90;;;;;;10418277;28;20733;-87
2023/01/20 09:26:55;;;;;;;3.60;2.60;;;0.30;99.90;;;;;;10401684;28;20098;-87
2023/01/20 09:31:59;;;;;;;0.57;0.57;;;0.40;99.90;;;;;;10414379;28;20030;-86
2023/01/20 09:43:52;;;;;;;1.13;1.13;;;0.40;99.90;;;;;;10407726;28;20030;-87
2023/01/20 09:54:02;;;;;;;0.30;0.30;;;0.60;99.90;;;;;;10407046;28;20504;-87
2023/01/20 09:59:09;;;;;;;0.27;0.27;;;0.60;99.90;;;;;;10417206;28;20798;-87
2023/01/20 10:04:31;;;;;;;5.87;3.37;;;0.60;99.90;;;;;;10401190;28;20401;-86
2023/01/20 10:09:53;;;;;;;1.07;1.07;;;0.70;99.90;;;;;;10373820;28;20048;-86
2023/01/20 10:15:24;;;;;;;0.13;0.13;;;0.70;99.90;;;;;;10365556;28;20558;-86
2023/01/20 10:20:38;;;;;;;0.47;0.47;;;0.70;99.90;;;;;;10369765;28;20022;-86
2023/01/20 10:25:57;;;;;;;0.70;0.70;;;0.70;99.90;;;;;;10364630;28;20038;-86
2023/01/20 10:31:01;;;;;;;0.37;0.33;;;0.60;99.90;;;;;;10346183;28;20040;-86
2023/01/20 10:47:14;;;;;;;0.73;0.73;;;0.60;99.90;;;;;;10547795;27;20767;-84
2023/01/20 10:52:50;;;;;;;2.87;1.93;;;1.20;99.90;;;;;;10519453;28;20053;-85
2023/01/20 10:58:00;;;;;;;1.70;1.60;;;1.00;99.90;;;;;;10523930;28;20020;-84
2023/01/20 11:03:04;;;;;;;0.47;0.47;;;0.90;99.90;;;;;;10514462;28;20032;-85
2023/01/20 11:08:25;;;;;;;0.10;0.10;;;0.80;99.90;;;;;;10519832;28;20177;-83
2023/01/20 11:13:26;;;;;;;2.80;2.30;;;0.90;99.90;;;;;;10457966;23;20058;-85
2023/01/20 11:18:29;;;;;;;2.43;1.90;;;0.80;99.90;;;;;;10405456;28;20026;-86
2023/01/20 11:23:51;;;;;;;1.23;1.20;;;0.90;99.90;;;;;;10396921;28;20114;-87
2023/01/20 11:29:17;;;;;;;0.37;0.37;;;0.90;99.90;;;;;;10395870;28;20034;-86
2023/01/20 11:34:29;;;;;;;0.73;0.73;;;0.90;99.90;;;;;;10393094;28;20095;-86
2023/01/20 11:39:32;;;;;;;2.83;1.90;;;1.00;99.90;;;;;;10407233;28;20632;-87
2023/01/20 11:44:44;;;;;;;0.53;0.53;;;1.00;99.90;;;;;;10400000;28;20031;-85
2023/01/20 11:49:44;;;;;;;2.00;1.90;;;0.90;99.90;;;;;;10383919;28;20021;-88
2023/01/20 11:54:45;;;;;;;0.53;0.53;;;0.90;99.90;;;;;;10378141;28;20042;-89
2023/01/20 11:59:48;;;;;;;0.10;0.10;;;0.90;99.90;;;;;;10381104;28;20129;-86
2023/01/20 12:05:03;;;;;;;0.30;0.30;;;0.90;99.90;;;;;;10380471;28;20112;-86
2023/01/20 12:10:31;;;;;;;0.27;0.27;;;0.90;99.90;;;;;;10392844;28;20026;-86
2023/01/20 12:15:36;;;;;;;2.67;2.40;;;0.90;99.90;;;;;;10374950;28;20065;-86
2023/01/20 12:20:53;;;;;;;0.10;0.10;;;0.90;99.90;;;;;;10379925;28;20036;-86
2023/01/20 12:25:59;;;;;;;4.10;3.03;;;1.00;99.90;;;;;;10378579;28;20576;-86
2023/01/20 12:31:02;;;;;;;1.27;0.50;;;1.00;99.90;;;;;;10353701;28;20034;-86
2023/01/20 12:36:27;;;;;;;6.53;0.93;;;0.90;99.90;;;;;;10392801;28;20038;-86
2023/01/20 12:41:42;;;;;;;1.93;1.57;;;0.90;99.90;;;;;;10381984;28;20096;-88
2023/01/20 12:46:50;;;;;;;2.53;2.33;;;0.80;99.90;;;;;;10380942;28;20113;-86
2023/01/20 12:52:08;;;;;;;1.23;1.13;;;0.80;99.90;;;;;;10367162;28;20092;-85
2023/01/20 12:57:42;;;;;;;3.77;1.63;;;0.80;99.90;;;;;;10363136;28;20030;-88
2023/01/20 13:03:10;;;;;;;2.50;2.40;;;0.80;99.90;;;;;;10379949;28;20022;-87
2023/01/20 13:08:28;;;;;;;15.33;4.63;;;0.80;99.90;;;;;;10363015;28;20041;-88
2023/01/20 13:13:38;;;;;;;9.40;2.70;;;0.80;99.90;;;;;;10363628;28;20058;-87
2023/01/20 13:18:47;;;;;;;5.83;5.23;;;0.80;99.90;;;;;;10372835;28;20052;-86
2023/01/20 13:23:49;;;;;;;1.97;1.87;;;0.80;99.90;;;;;;10381872;28;20044;-84
2023/01/20 13:28:54;;;;;;;1.67;1.60;;;0.80;99.90;;;;;;10365079;28;20424;-83
2023/01/20 13:34:21;;;;;;;4.15;3.85;;;0.80;99.90;;;;;;10375089;28;20131;-84
2023/01/20 13:39:39;;;;;;;1.30;1.20;;;0.80;99.90;;;;;;10377941;28;20473;-83
2023/01/20 13:44:39;;;;;;;2.17;2.07;;;0.80;99.90;;;;;;10392341;28;20026;-84
2023/01/20 13:49:45;;;;;;;0.23;0.23;;;0.90;99.90;;;;;;10380381;28;20495;-84
2023/01/20 13:54:46;;;;;;;0.28;0.28;;;0.80;99.90;;;;;;10389747;28;20037;-83
2023/01/20 13:59:47;;;;;;;1.43;1.40;;;0.80;99.90;;;;;;10365087;28;20095;-88
2023/01/20 14:04:48;;;;;;;1.40;1.30;;;0.70;99.90;;;;;;10366037;28;20083;-87
2023/01/20 14:09:54;;;;;;;1.97;1.87;;;0.80;99.90;;;;;;10358097;28;20029;-87
2023/01/20 14:14:55;;;;;;;0.55;0.55;;;0.70;99.90;;;;;;10361250;28;20417;-86
2023/01/20 14:19:55;;;;;;;0.83;0.83;;;0.70;99.90;;;;;;10382598;28;20034;-85
2023/01/20 14:24:58;;;;;;;7.97;2.03;;;0.70;99.90;;;;;;10375465;28;20040;-86
2023/01/20 14:30:21;;;;;;;1.70;1.60;;;0.70;99.90;;;;;;10384841;28;20033;-86
2023/01/20 14:35:26;;;;;;;2.30;2.10;;;0.70;99.90;;;;;;10387921;28;20068;-84
2023/01/20 14:40:31;;;;;;;0.40;0.40;;;0.70;99.90;;;;;;10377505;28;20033;-85
2023/01/20 14:45:33;;;;;;;0.27;0.27;;;0.70;99.90;;;;;;10375390;28;20033;-86
2023/01/20 14:50:33;;;;;;;1.20;1.20;;;0.60;99.90;;;;;;10374108;28;20124;-88
2023/01/20 14:55:44;;;;;;;1.77;1.67;;;0.60;99.90;;;;;;10361687;28;20030;-85
2023/01/20 15:00:50;;;;;;;2.07;1.97;;;0.60;99.90;;;;;;10357329;28;20037;-88
2023/01/20 15:06:09;;;;;;;0.57;0.57;;;0.60;99.90;;;;;;10357826;28;20084;-85
2023/01/20 15:11:13;;;;;;;0.03;0.03;;;0.60;99.90;;;;;;10359415;28;20053;-87
2023/01/20 15:16:24;;;;;;;0.00;0.00;;;0.60;99.90;;;;;;10357581;28;20095;-84
2023/01/20 15:21:35;;;;;;;2.67;1.90;;;0.60;99.90;;;;;;10362348;28;20469;-86
2023/01/20 15:26:46;;;;;;;2.43;2.33;;;0.60;99.90;;;;;;10380964;28;20029;-86
2023/01/20 15:32:27;;;;;;;0.13;0.13;;;0.60;99.90;;;;;;10365391;28;20073;-88
2023/01/20 15:37:27;;;;;;;0.40;0.40;;;0.60;99.90;;;;;;10394936;28;20069;-84
2023/01/20 15:43:08;;;;;;;3.53;1.80;;;0.60;99.90;;;;;;10364181;28;20499;-86
2023/01/20 15:48:20;;;;;;;0.20;0.20;;;0.60;99.90;;;;;;10366100;28;20076;-84
2023/01/20 15:53:21;;;;;;;6.57;3.60;;;0.60;99.90;;;;;;10381154;28;20033;-83
2023/01/20 15:58:22;;;;;;;0.87;0.87;;;0.50;99.90;;;;;;10364081;28;20036;-85
2023/01/20 16:03:24;;;;;;;5.30;2.70;;;0.50;99.90;;;;;;10365020;28;20056;-82
2023/01/20 16:08:34;;;;;;;0.00;0.00;;;0.50;99.90;;;;;;10365521;28;20661;-83
2023/01/20 16:13:38;;;;;;;0.40;0.40;;;0.50;99.90;;;;;;10364498;28;20545;-86
2023/01/20 16:18:38;;;;;;;4.40;4.10;;;0.40;99.90;;;;;;10365195;28;20428;-83
2023/01/20 16:23:39;;;;;;;4.90;1.90;;;0.40;99.90;;;;;;10362878;28;20080;-84
2023/01/20 16:28:40;;;;;;;0.83;0.83;;;0.40;99.90;;;;;;10366109;28;20037;-82
2023/01/20 16:33:40;;;;;;;0.77;0.77;;;0.40;99.90;;;;;;10364219;28;20045;-81
2023/01/20 16:38:41;;;;;;;2.77;1.60;;;0.30;99.90;;;;;;10372691;28;20397;-83
2023/01/20 16:43:42;;;;;;;3.20;1.27;;;0.40;99.90;;;;;;10381581;28;20034;-85
2023/01/20 16:48:43;;;;;;;3.90;3.60;;;0.40;99.90;;;;;;10389162;28;20022;-82
2023/01/20 16:53:44;;;;;;;4.83;0.93;;;0.30;99.90;;;;;;10377097;28;20033;-82
2023/01/20 16:58:50;;;;;;;3.80;3.50;;;0.40;99.90;;;;;;10378631;28;20660;-82
2023/01/20 17:03:53;;;;;;;1.97;1.80;;;0.40;99.90;;;;;;10392902;28;20072;-83
2023/01/20 17:08:55;;;;;;;0.87;0.87;;;0.40;99.90;;;;;;10371033;28;20481;-83
2023/01/20 17:13:57;;;;;;;1.70;1.60;;;0.40;99.90;;;;;;10363066;28;20053;-83
2023/01/20 17:18:59;;;;;;;0.57;0.57;;;0.40;99.90;;;;;;10391692;28;20373;-83
2023/01/20 17:24:03;;;;;;;1.67;0.63;;;0.40;99.90;;;;;;10378104;28;20065;-82
2023/01/20 17:29:05;;;;;;;0.40;0.40;;;0.40;99.90;;;;;;10363238;28;20033;-84
2023/01/20 17:34:06;;;;;;;0.10;0.10;;;0.40;99.90;;;;;;10362900;28;20041;-84
2023/01/20 17:39:06;;;;;;;2.03;1.93;;;0.40;99.90;;;;;;10363503;28;20052;-82
2023/01/20 17:44:07;;;;;;;0.67;0.57;;;0.40;99.90;;;;;;10361482;28;20034;-82
2023/01/20 17:49:08;;;;;;;0.33;0.33;;;0.40;99.90;;;;;;10358532;28;20068;-82
2023/01/20 17:54:09;;;;;;;0.00;0.00;;;0.40;99.90;;;;;;10364121;28;20034;-84
2023/01/20 17:59:09;;;;;;;0.90;0.90;;;0.40;99.90;;;;;;10367151;28;20029;-83
2023/01/20 18:04:10;;;;;;;0.50;0.50;;;0.40;99.90;;;;;;10360988;28;20075;-82
2023/01/20 18:09:13;;;;;;;0.40;0.40;;;0.40;99.90;;;;;;10361581;28;20166;-82
2023/01/20 18:14:13;;;;;;;2.13;2.00;;;0.40;99.90;;;;;;10360902;28;20065;-83
2023/01/20 18:19:14;;;;;;;0.10;0.10;;;0.40;99.90;;;;;;10363041;28;20465;-83
2023/01/20 18:24:14;;;;;;;0.80;0.80;;;0.40;99.90;;;;;;10362966;28;20030;-84
2023/01/20 18:29:15;;;;;;;4.40;2.23;;;0.40;99.90;;;;;;10373835;28;20033;-84
2023/01/20 18:34:16;;;;;;;3.83;2.07;;;0.40;99.90;;;;;;10361095;28;20050;-82
2023/01/20 18:39:23;;;;;;;2.70;2.57;;;0.40;99.90;;;;;;10360442;28;20038;-82
2023/01/20 18:44:24;;;;;;;0.10;0.10;;;0.40;99.90;;;;;;10362160;28;20030;-84
2023/01/20 18:49:25;;;;;;;0.40;0.40;;;0.50;99.90;;;;;;10371590;28;20033;-81
2023/01/20 18:54:28;;;;;;;2.20;0.73;;;0.40;99.90;;;;;;10358917;28;20034;-84
2023/01/20 18:59:29;;;;;;;1.53;1.50;;;0.40;99.90;;;;;;10369812;28;20037;-83
2023/01/20 19:04:32;;;;;;;1.57;1.47;;;0.40;99.90;;;;;;10373818;28;20428;-83
2023/01/20 19:09:32;;;;;;;0.00;0.00;;;0.40;99.90;;;;;;10368977;28;20025;-83
2023/01/20 19:14:33;;;;;;;0.47;0.47;;;0.40;99.90;;;;;;10372446;28;20424;-82
2023/01/20 19:19:33;;;;;;;3.03;2.73;;;0.40;99.90;;;;;;10369070;28;20061;-83
2023/01/20 19:24:34;;;;;;;1.47;1.40;;;0.40;99.90;;;;;;10367641;28;20591;-83
2023/01/20 19:29:35;;;;;;;2.73;1.20;;;0.40;99.90;;;;;;10374078;28;20040;-86
2023/01/20 19:34:35;;;;;;;1.20;0.77;;;0.30;99.90;;;;;;10377182;28;20557;-84
2023/01/20 19:39:36;;;;;;;0.27;0.27;;;0.30;99.90;;;;;;10367131;28;20033;-84
2023/01/20 19:44:36;;;;;;;0.07;0.07;;;0.30;99.90;;;;;;10367035;28;20022;-83
2023/01/20 19:49:37;;;;;;;0.53;0.53;;;0.30;99.90;;;;;;10384461;28;20795;-83
2023/01/20 19:54:38;;;;;;;3.33;1.50;;;0.30;99.90;;;;;;10367125;28;20052;-85
2023/01/20 19:59:39;;;;;;;0.50;0.50;;;;;;;;;;10366678;28;20392;-83
2023/01/20 20:04:40;;;;;;;1.30;1.23;;;;;;;;;;10368144;28;20068;-84
2023/01/20 20:09:41;;;;;;;1.80;1.37;;;0.60;99.90;;;;;;10384116;28;20037;-85
2023/01/20 20:14:42;;;;;;;0.00;0.00;;;;;;;;;;10390472;23;20061;-81
2023/01/20 20:19:43;;;;;;;0.73;0.63;;;;;;;;;;10482107;28;20103;-82
2023/01/20 20:24:45;;;;;;;1.80;1.70;;;;;;;;;;10488423;28;20031;-81
2023/01/20 20:29:46;;;;;;;0.00;0.00;;;;;;;;;;10488270;28;20071;-81
2023/01/20 20:34:47;;;;;;;0.00;0.00;;;;;;;;;;10504021;28;20043;-81
2023/01/20 20:39:48;;;;;;;0.00;0.00;;;;;;;;;;10529420;28;20461;-81
2023/01/20 20:44:49;;;;;;;0.00;0.00;;;;;;;;;;10516618;28;20024;-80
2023/01/20 20:49:50;;;;;;;0.00;0.00;;;;;;;;;;10518453;28;20039;-80
2023/01/20 20:54:54;;;;;;;2.33;2.13;;;;;;;;;;10521499;28;20173;-84
2023/01/20 20:59:56;;;;;;;3.03;1.50;;;;;;;;;;10502250;28;20209;-82
2023/01/20 21:04:57;;;;;;;0.53;0.53;;;;;;;;;;10515669;28;20054;-83
2023/01/20 21:09:58;;;;;;;0.00;0.00;;;;;;;;;;10535986;28;20344;-83
2023/01/20 21:14:59;;;;;;;0.93;0.93;;;;;;;;;;10543811;28;20051;-82
2023/01/20 21:20:00;;;;;;;0.07;0.07;;;;;;;;;;10505792;28;20040;-82
2023/01/20 21:25:01;;;;;;;1.40;1.30;;;;;;;;;;10527210;28;20426;-84
2023/01/20 21:30:02;;;;;;;6.43;1.40;;;;;;;;;;10493482;28;20036;-82
2023/01/20 21:35:03;;;;;;;0.00;0.00;;;;;;;;;;10495432;28;20043;-82
2023/01/20 21:40:04;;;;;;;0.30;0.20;;;;;;;;;;10516527;28;20025;-82
2023/01/20 21:45:06;;;;;;;1.70;1.37;;;;;;;;;;10510433;28;20032;-83
2023/01/20 21:55:27;;;;;;;0.97;0.97;;;;;;;;;;10515263;28;20382;-82
2023/01/20 22:00:28;;;;;;;0.40;0.40;;;;;;;;;;10525602;28;20032;-83
2023/01/20 22:05:29;;;;;;;0.07;0.07;;;;;;;;;;10508604;28;20048;-84
2023/01/20 22:10:33;;;;;;;0.20;0.20;;;;;;;;;;10511796;28;20100;-82
2023/01/20 22:15:34;;;;;;;0.00;0.00;;;;;;;;;;10499479;28;20051;-82
2023/01/20 22:20:35;;;;;;;0.53;0.53;;;;;;;;;;10526668;28;20095;-82
2023/01/20 22:25:37;;;;;;;0.00;0.00;;;;;;;;;;10517576;28;20069;-83
2023/01/20 22:30:38;;;;;;;1.23;1.20;;;;;;;;;;10508760;28;20097;-82
2023/01/20 22:35:40;;;;;;;0.00;0.00;;;;;;;;;;10511058;28;20445;-82
2023/01/20 22:40:41;;;;;;;0.00;0.00;;;;;;;;;;10524385;28;20514;-83
2023/01/20 22:45:42;;;;;;;0.00;0.00;;;;;;;;;;10525054;28;20077;-83
2023/01/20 22:50:43;;;;;;;0.00;0.00;;;;;;;;;;10498132;28;20364;-83
2023/01/20 22:55:46;;;;;;;0.20;0.20;;;;;;;;;;10518363;28;20036;-84
2023/01/20 23:00:47;;;;;;;0.00;0.00;;;;;;;;;;10503568;28;20303;-83
2023/01/20 23:05:52;;;;;;;6.33;1.90;;;;;;;;;;10510060;28;20119;-82
2023/01/20 23:10:53;;;;;;;0.93;0.93;;;;;;;;;;10515485;28;20030;-82
2023/01/20 23:15:55;;;;;;;0.97;0.77;;;;;;;;;;10536552;28;20055;-82
2023/01/20 23:20:56;;;;;;;0.00;0.00;;;;;;;;;;10509752;28;20040;-82
2023/01/20 23:26:01;;;;;;;0.10;0.10;;;;;;;;;;10497319;28;20036;-82
2023/01/20 23:31:03;;;;;;;0.00;0.00;;;;;;;;;;10520689;28;20024;-83
2023/01/20 23:36:09;;;;;;;0.10;0.10;;;;;;;;;;10530273;28;20036;-83
2023/01/20 23:41:10;;;;;;;0.25;0.25;;;;;;;;;;10519858;28;20075;-82
2023/01/20 23:46:11;;;;;;;0.00;0.00;;;;;;;;;;10510851;28;20059;-83
2023/01/20 23:51:12;;;;;;;0.00;0.00;;;;;;;;;;10547175;28;20088;-82
2023/01/20 23:56:16;;;;;;;1.60;1.50;;;;;;;;;;10513517;28;20402;-82
